createdAt,value
2022-12-04T00:00:36.865Z,1.60
2022-12-04T00:03:05.086Z,1.70
2022-12-04T00:05:32.832Z,1.70
2022-12-04T00:08:00.644Z,1.70
2022-12-04T00:10:28.369Z,1.60
2022-12-04T00:12:56.038Z,1.70
2022-12-04T00:15:26.523Z,1.80
2022-12-04T00:17:54.603Z,1.50
2022-12-04T00:20:23.041Z,1.50
2022-12-04T00:22:50.764Z,1.40
2022-12-04T00:25:18.550Z,1.50
2022-12-04T00:27:46.251Z,1.60
2022-12-04T00:30:14.353Z,1.80
2022-12-04T00:32:43.363Z,1.70
2022-12-04T00:35:11.029Z,1.70
2022-12-04T00:37:38.730Z,1.70
2022-12-04T00:40:07.211Z,1.70
2022-12-04T00:42:34.882Z,1.70
2022-12-04T00:45:02.537Z,1.90
2022-12-04T00:47:30.334Z,1.80
2022-12-04T00:49:59.314Z,1.90
2022-12-04T00:52:28.318Z,2.10
2022-12-04T00:54:56.646Z,1.90
2022-12-04T00:57:24.384Z,2.20
2022-12-04T00:59:52.086Z,2.10
2022-12-04T01:02:19.867Z,1.90
2022-12-04T01:04:47.545Z,2.00
2022-12-04T01:07:16.566Z,1.80
2022-12-04T01:09:44.304Z,1.90
2022-12-04T01:12:16.187Z,1.80
2022-12-04T01:14:46.880Z,1.80
2022-12-04T01:17:14.549Z,1.80
2022-12-04T01:19:42.280Z,1.90
2022-12-04T01:22:10.245Z,1.90
2022-12-04T01:24:39.324Z,1.80
2022-12-04T01:27:07.023Z,1.80
2022-12-04T01:29:34.720Z,1.80
2022-12-04T01:32:02.501Z,1.70
2022-12-04T01:34:30.227Z,1.80
2022-12-04T01:36:58.105Z,1.70
2022-12-04T01:39:25.760Z,1.80
2022-12-04T01:41:54.787Z,1.90
2022-12-04T01:44:23.727Z,1.80
2022-12-04T01:46:51.925Z,1.70
2022-12-04T01:49:22.114Z,1.80
2022-12-04T01:51:50.857Z,1.90
2022-12-04T01:54:21.315Z,1.80
2022-12-04T01:56:50.776Z,1.80
2022-12-04T01:59:22.539Z,1.70
2022-12-04T02:01:53.733Z,1.80
2022-12-04T02:04:21.679Z,1.80
2022-12-04T02:06:49.370Z,1.80
2022-12-04T02:09:20.473Z,2.00
2022-12-04T02:11:53.565Z,1.80
2022-12-04T02:14:26.983Z,1.80
2022-12-04T02:17:01.503Z,1.80
2022-12-04T02:19:54.710Z,1.70
2022-12-04T02:22:30.501Z,2.00
2022-12-04T02:25:00.727Z,1.90
2022-12-04T02:27:36.281Z,2.00
2022-12-04T02:30:06.665Z,1.80
2022-12-04T02:32:40.560Z,1.70
2022-12-04T02:35:10.636Z,1.70
2022-12-04T02:37:40.059Z,1.70
2022-12-04T02:40:09.313Z,1.80
2022-12-04T02:42:40.145Z,1.80
2022-12-04T02:45:10.670Z,1.90
2022-12-04T02:47:39.201Z,2.10
2022-12-04T02:50:09.317Z,2.00
2022-12-04T02:52:39.060Z,2.00
2022-12-04T02:55:09.091Z,2.00
2022-12-04T02:57:39.647Z,1.90
2022-12-04T03:00:09.377Z,2.00
2022-12-04T03:02:39.982Z,1.90
2022-12-04T03:05:11.197Z,1.80
2022-12-04T03:07:40.939Z,1.70
2022-12-04T03:10:11.265Z,1.70
2022-12-04T03:12:40.943Z,1.80
2022-12-04T03:15:13.241Z,1.70
2022-12-04T03:17:46.096Z,1.90
2022-12-04T03:20:15.787Z,1.80
2022-12-04T03:22:44.815Z,1.80
2022-12-04T03:25:14.746Z,1.60
2022-12-04T03:27:45.370Z,1.60
2022-12-04T03:30:16.637Z,1.80
2022-12-04T03:32:47.355Z,1.90
2022-12-04T03:35:17.395Z,1.90
2022-12-04T03:37:48.048Z,2.00
2022-12-04T03:40:18.323Z,1.90
2022-12-04T03:42:49.289Z,1.80
2022-12-04T03:45:21.261Z,1.70
2022-12-04T03:47:52.440Z,1.70
2022-12-04T03:50:24.504Z,1.90
2022-12-04T03:52:56.635Z,1.80
2022-12-04T03:55:25.942Z,1.90
2022-12-04T03:57:57.497Z,2.00
2022-12-04T04:00:26.647Z,1.80
2022-12-04T04:02:58.265Z,1.90
2022-12-04T04:05:26.725Z,1.90
2022-12-04T04:07:57.004Z,2.00
2022-12-04T04:10:25.701Z,1.90
2022-12-04T04:13:11.024Z,1.90
2022-12-04T04:16:00.198Z,2.00
2022-12-04T04:18:46.280Z,2.00
2022-12-04T04:21:32.308Z,2.10
2022-12-04T04:24:15.442Z,2.10
2022-12-04T04:26:44.636Z,1.90
2022-12-04T04:29:12.774Z,2.00
2022-12-04T04:31:43.897Z,2.10
2022-12-04T04:34:17.319Z,2.20
2022-12-04T04:36:48.885Z,2.10
2022-12-04T04:39:21.123Z,2.00
2022-12-04T04:41:51.318Z,1.90
2022-12-04T04:44:20.993Z,2.00
2022-12-04T04:46:52.714Z,2.00
2022-12-04T04:49:23.045Z,1.90
2022-12-04T04:51:50.951Z,2.00
2022-12-04T04:54:19.635Z,1.90
2022-12-04T04:56:47.905Z,2.00
2022-12-04T04:59:15.864Z,1.90
2022-12-04T05:01:45.302Z,2.10
2022-12-04T05:04:14.437Z,2.10
2022-12-04T05:06:42.152Z,2.00
2022-12-04T05:09:09.844Z,2.00
2022-12-04T05:11:37.500Z,1.80
2022-12-04T05:14:05.926Z,1.80
2022-12-04T05:16:33.674Z,1.90
2022-12-04T05:19:19.054Z,2.10
2022-12-04T05:21:48.076Z,2.10
2022-12-04T05:24:15.727Z,2.10
2022-12-04T05:26:43.368Z,2.10
2022-12-04T05:29:11.026Z,2.00
2022-12-04T05:31:38.737Z,1.80
2022-12-04T05:34:06.446Z,2.00
2022-12-04T05:36:34.111Z,2.10
2022-12-04T05:39:03.080Z,1.80
2022-12-04T05:41:30.741Z,1.80
2022-12-04T05:43:58.405Z,1.90
2022-12-04T05:46:26.354Z,1.90
2022-12-04T05:48:54.106Z,1.80
2022-12-04T05:51:21.788Z,2.00
2022-12-04T05:53:52.227Z,2.00
2022-12-04T05:56:21.371Z,2.00
2022-12-04T05:58:49.136Z,1.80
2022-12-04T06:01:17.787Z,1.90
2022-12-04T06:03:45.480Z,1.80
2022-12-04T06:06:20.771Z,1.80
2022-12-04T06:08:49.380Z,1.90
2022-12-04T06:11:18.070Z,2.10
2022-12-04T06:13:47.486Z,2.10
2022-12-04T06:16:16.281Z,1.90
2022-12-04T06:18:43.956Z,1.90
2022-12-04T06:21:12.122Z,2.00
2022-12-04T06:23:39.777Z,1.90
2022-12-04T06:26:08.080Z,2.10
2022-12-04T06:28:36.224Z,1.90
2022-12-04T06:31:06.141Z,1.80
2022-12-04T06:33:33.863Z,2.00
2022-12-04T06:36:01.903Z,1.90
2022-12-04T06:38:29.556Z,1.80
2022-12-04T06:40:57.469Z,1.80
2022-12-04T06:43:25.414Z,1.80
2022-12-04T06:46:00.404Z,1.90
2022-12-04T06:48:29.917Z,1.80
2022-12-04T06:51:00.715Z,1.70
2022-12-04T06:53:30.334Z,1.70
2022-12-04T06:55:58.833Z,1.80
2022-12-04T06:58:26.868Z,1.90
2022-12-04T07:00:55.107Z,1.90
2022-12-04T07:03:23.203Z,1.70
2022-12-04T07:05:52.380Z,1.80
2022-12-04T07:08:20.037Z,1.70
2022-12-04T07:10:47.751Z,1.60
2022-12-04T07:13:15.664Z,1.80
2022-12-04T07:15:43.299Z,1.90
2022-12-04T07:18:10.979Z,1.90
2022-12-04T07:20:40.408Z,1.70
2022-12-04T07:23:09.395Z,1.80
2022-12-04T07:25:40.463Z,1.80
2022-12-04T07:28:08.170Z,1.80
2022-12-04T07:30:37.927Z,1.80
2022-12-04T07:33:05.722Z,1.70
2022-12-04T07:35:33.384Z,1.60
2022-12-04T07:38:01.027Z,1.60
2022-12-04T07:40:30.185Z,1.60
2022-12-04T07:42:57.895Z,1.60
2022-12-04T07:45:25.567Z,1.60
2022-12-04T07:47:53.224Z,1.60
2022-12-04T07:50:20.882Z,1.70
2022-12-04T07:52:48.648Z,1.70
2022-12-04T07:55:21.572Z,1.50
2022-12-04T07:57:52.089Z,1.50
2022-12-04T08:00:20.279Z,1.60
2022-12-04T08:02:47.933Z,1.60
2022-12-04T08:05:15.694Z,1.70
2022-12-04T08:07:43.597Z,1.70
2022-12-04T08:10:11.438Z,1.80
2022-12-04T08:12:39.124Z,1.70
2022-12-04T08:15:08.905Z,1.80
2022-12-04T08:17:36.545Z,1.80
2022-12-04T08:20:04.638Z,1.70
2022-12-04T08:22:32.294Z,1.70
2022-12-04T08:24:59.935Z,1.80
2022-12-04T08:27:27.592Z,1.70
2022-12-04T08:29:55.373Z,1.70
2022-12-04T08:32:24.556Z,1.70
2022-12-04T08:34:55.673Z,1.80
2022-12-04T08:37:23.793Z,1.80
2022-12-04T08:39:51.440Z,1.80
2022-12-04T08:42:19.097Z,1.90
2022-12-04T08:44:46.731Z,1.80
2022-12-04T08:47:14.951Z,1.80
2022-12-04T08:49:43.984Z,2.00
2022-12-04T08:52:11.752Z,1.90
2022-12-04T08:54:39.435Z,1.90
2022-12-04T08:57:07.292Z,2.00
2022-12-04T08:59:35.042Z,2.00
2022-12-04T09:02:02.760Z,2.10
2022-12-04T09:04:32.491Z,2.10
2022-12-04T09:07:01.483Z,2.00
2022-12-04T09:09:29.138Z,1.90
2022-12-04T09:11:56.807Z,1.90
2022-12-04T09:14:25.948Z,2.10
2022-12-04T09:16:53.706Z,2.00
2022-12-04T09:19:21.561Z,2.10
2022-12-04T09:21:49.475Z,2.10
2022-12-04T09:24:19.027Z,2.10
2022-12-04T09:26:46.703Z,2.00
2022-12-04T09:29:14.429Z,2.00
2022-12-04T09:31:42.164Z,2.10
2022-12-04T09:34:10.109Z,2.00
2022-12-04T09:36:38.121Z,2.20
2022-12-04T09:39:05.800Z,2.20
2022-12-04T09:41:48.455Z,2.10
2022-12-04T09:44:19.923Z,2.10
2022-12-04T09:46:51.430Z,2.10
2022-12-04T09:49:22.389Z,2.20
2022-12-04T09:51:51.142Z,2.20
2022-12-04T09:54:19.979Z,2.20
2022-12-04T09:56:52.427Z,2.20
2022-12-04T09:59:22.912Z,2.10
2022-12-04T10:01:52.552Z,2.10
2022-12-04T10:04:20.380Z,2.10
2022-12-04T10:06:50.358Z,2.10
2022-12-04T10:09:20.874Z,2.10
2022-12-04T10:11:53.323Z,2.20
2022-12-04T10:14:30.946Z,2.30
2022-12-04T10:17:14.258Z,2.40
2022-12-04T10:19:47.153Z,2.30
2022-12-04T10:22:18.871Z,2.30
2022-12-04T10:24:49.066Z,2.30
2022-12-04T10:27:19.637Z,2.30
2022-12-04T10:29:50.874Z,2.40
2022-12-04T10:32:21.293Z,2.30
2022-12-04T10:34:50.335Z,2.30
2022-12-04T10:37:18.419Z,2.10
2022-12-04T10:39:49.735Z,2.20
2022-12-04T10:42:22.814Z,2.30
2022-12-04T10:44:51.808Z,2.30
2022-12-04T10:47:19.601Z,2.30
2022-12-04T10:49:47.254Z,2.30
2022-12-04T10:52:14.919Z,2.30
2022-12-04T10:54:47.779Z,2.40
2022-12-04T10:57:15.776Z,2.50
2022-12-04T10:59:50.112Z,2.50
2022-12-04T11:02:21.344Z,2.40
2022-12-04T11:04:53.382Z,2.40
2022-12-04T11:07:22.479Z,2.30
2022-12-04T11:09:55.585Z,2.30
2022-12-04T11:12:23.752Z,2.40
2022-12-04T11:15:00.395Z,2.50
2022-12-04T11:17:29.503Z,2.50
2022-12-04T11:20:00.889Z,2.60
2022-12-04T11:22:28.632Z,2.40
2022-12-04T11:24:57.219Z,2.50
2022-12-04T11:27:27.112Z,2.50
2022-12-04T11:29:55.472Z,2.50
2022-12-04T11:32:24.109Z,2.50
2022-12-04T11:34:54.009Z,2.50
2022-12-04T11:37:23.531Z,2.50
2022-12-04T11:39:51.991Z,2.50
2022-12-04T11:42:20.753Z,2.50
2022-12-04T11:44:52.604Z,2.70
2022-12-04T11:47:21.513Z,2.60
2022-12-04T11:50:01.441Z,2.70
2022-12-04T11:52:33.166Z,2.80
2022-12-04T11:55:03.090Z,2.70
2022-12-04T11:57:35.598Z,2.60
2022-12-04T12:00:12.861Z,2.50
2022-12-04T12:02:47.451Z,2.50
2022-12-04T12:05:27.949Z,2.60
2022-12-04T12:08:03.068Z,2.50
2022-12-04T12:10:33.020Z,2.50
2022-12-04T12:13:05.905Z,2.50
2022-12-04T12:15:41.453Z,2.70
2022-12-04T12:18:22.478Z,2.60
2022-12-04T12:20:57.503Z,2.50
2022-12-04T12:23:33.157Z,2.60
2022-12-04T12:26:04.177Z,2.40
2022-12-04T12:28:42.736Z,2.30
2022-12-04T12:31:16.528Z,2.40
2022-12-04T12:33:47.604Z,2.30
2022-12-04T12:36:16.965Z,2.40
2022-12-04T12:38:47.506Z,2.40
2022-12-04T12:41:16.965Z,2.40
2022-12-04T12:43:46.298Z,2.50
2022-12-04T12:46:17.232Z,2.50
2022-12-04T12:48:47.730Z,2.60
2022-12-04T12:54:16.351Z,2.60
2022-12-04T12:56:49.726Z,2.40
2022-12-04T12:59:20.315Z,2.40
2022-12-04T13:01:50.276Z,2.40
2022-12-04T13:04:21.565Z,2.50
2022-12-04T13:06:53.905Z,2.60
2022-12-04T13:09:25.452Z,2.50
2022-12-04T13:11:54.241Z,2.40
2022-12-04T13:14:23.842Z,2.40
2022-12-04T13:16:53.146Z,2.50
2022-12-04T13:19:24.120Z,2.60
2022-12-04T13:21:58.804Z,2.50
2022-12-04T13:24:32.452Z,2.40
2022-12-04T13:27:03.064Z,2.40
2022-12-04T13:29:41.182Z,2.40
2022-12-04T13:32:15.534Z,2.40
2022-12-04T13:34:49.233Z,2.40
2022-12-04T13:37:28.128Z,2.40
2022-12-04T13:40:25.708Z,2.60
2022-12-04T13:42:53.404Z,2.70
2022-12-04T13:45:27.238Z,2.50
2022-12-04T13:47:58.516Z,2.50
2022-12-04T13:50:28.334Z,2.60
2022-12-04T13:52:57.946Z,2.40
2022-12-04T13:55:27.453Z,2.40
2022-12-04T13:57:55.934Z,2.40
2022-12-04T14:00:31.642Z,2.40
2022-12-04T14:03:00.792Z,2.40
2022-12-04T14:05:30.185Z,2.60
2022-12-04T14:08:07.095Z,2.60
2022-12-04T14:10:37.393Z,2.60
2022-12-04T14:13:07.424Z,2.70
2022-12-04T14:15:36.809Z,2.70
2022-12-04T14:18:07.222Z,2.70
2022-12-04T14:20:35.683Z,2.80
2022-12-04T14:23:26.336Z,2.70
2022-12-04T14:25:56.949Z,2.70
2022-12-04T14:28:27.344Z,2.70
2022-12-04T14:31:07.191Z,2.60
2022-12-04T14:33:37.464Z,2.80
2022-12-04T14:36:08.156Z,2.80
2022-12-04T14:38:37.325Z,2.70
2022-12-04T14:41:05.220Z,2.50
2022-12-04T14:43:35.842Z,2.60
2022-12-04T14:46:07.686Z,2.60
2022-12-04T14:48:40.540Z,2.70
2022-12-04T14:51:11.893Z,2.80
2022-12-04T14:53:43.804Z,2.70
2022-12-04T14:56:21.296Z,2.50
2022-12-04T14:58:49.070Z,2.40
2022-12-04T15:01:26.923Z,2.40
2022-12-04T15:03:57.957Z,2.60
2022-12-04T15:06:26.863Z,2.60
2022-12-04T15:09:18.164Z,2.50
2022-12-04T15:12:04.062Z,2.50
2022-12-04T15:14:40.046Z,2.60
2022-12-04T15:17:07.678Z,2.70
2022-12-04T15:19:35.333Z,2.50
2022-12-04T15:22:07.383Z,2.50
2022-12-04T15:24:40.449Z,2.70
2022-12-04T15:27:08.280Z,2.70
2022-12-04T15:29:38.058Z,2.60
2022-12-04T15:32:09.513Z,2.60
2022-12-04T15:34:38.896Z,2.60
2022-12-04T15:37:07.799Z,2.70
2022-12-04T15:39:37.840Z,2.60
2022-12-04T15:42:07.807Z,2.50
2022-12-04T15:44:36.421Z,2.40
2022-12-04T15:47:05.007Z,2.50
2022-12-04T15:49:33.390Z,2.60
2022-12-04T15:52:05.580Z,2.70
2022-12-04T15:54:36.128Z,2.70
2022-12-04T15:57:04.803Z,2.50
2022-12-04T15:59:35.198Z,2.50
2022-12-04T16:02:06.960Z,2.40
2022-12-04T16:04:35.575Z,2.50
2022-12-04T16:07:03.510Z,2.50
2022-12-04T16:09:32.118Z,2.50
2022-12-04T16:12:00.676Z,2.60
2022-12-04T16:14:28.358Z,2.50
2022-12-04T16:17:05.597Z,2.60
2022-12-04T16:19:35.330Z,2.50
2022-12-04T16:22:03.882Z,2.40
2022-12-04T16:24:31.783Z,2.40
2022-12-04T16:27:00.929Z,2.40
2022-12-04T16:29:30.449Z,2.50
2022-12-04T16:32:02.989Z,2.40
2022-12-04T16:34:31.428Z,2.50
2022-12-04T16:36:59.683Z,2.50
2022-12-04T16:39:27.355Z,2.60
2022-12-04T16:41:55.036Z,2.60
2022-12-04T16:44:22.668Z,2.60
2022-12-04T16:46:51.483Z,2.60
2022-12-04T16:49:20.481Z,2.60
2022-12-04T16:51:50.456Z,2.70
2022-12-04T16:54:18.303Z,2.70
2022-12-04T16:56:46.000Z,2.70
2022-12-04T16:59:13.659Z,2.70
2022-12-04T17:01:43.844Z,2.80
2022-12-04T17:04:11.718Z,2.70
2022-12-04T17:06:40.907Z,2.70
2022-12-04T17:09:08.871Z,2.70
2022-12-04T17:11:36.776Z,2.70
2022-12-04T17:14:07.126Z,2.70
2022-12-04T17:16:34.890Z,2.60
2022-12-04T17:19:02.964Z,2.60
2022-12-04T17:21:30.703Z,2.70
2022-12-04T17:23:59.719Z,2.60
2022-12-04T17:26:27.834Z,2.50
2022-12-04T17:28:55.462Z,2.60
2022-12-04T17:31:24.175Z,2.60
2022-12-04T17:33:52.362Z,2.50
2022-12-04T17:36:21.251Z,2.50
2022-12-04T17:38:48.988Z,2.50
2022-12-04T17:41:18.040Z,2.60
2022-12-04T17:43:45.847Z,2.50
2022-12-04T17:46:15.265Z,2.60
2022-12-04T17:48:43.270Z,2.60
2022-12-04T17:51:11.864Z,2.50
2022-12-04T17:53:40.011Z,2.50
2022-12-04T17:56:09.103Z,2.60
2022-12-04T17:58:38.441Z,2.60
2022-12-04T18:01:06.678Z,2.60
2022-12-04T18:03:34.710Z,2.40
2022-12-04T18:06:11.701Z,2.40
2022-12-04T18:08:39.541Z,2.50
2022-12-04T18:11:07.475Z,2.50
2022-12-04T18:13:35.384Z,2.50
2022-12-04T18:16:05.694Z,2.40
2022-12-04T18:18:33.560Z,2.60
2022-12-04T18:21:01.985Z,2.40
2022-12-04T18:23:30.142Z,2.40
2022-12-04T18:25:57.891Z,2.50
2022-12-04T18:28:25.649Z,2.40
2022-12-04T18:30:53.438Z,2.50
2022-12-04T18:33:22.454Z,2.40
2022-12-04T18:35:56.201Z,2.40
2022-12-04T18:38:24.081Z,2.40
2022-12-04T18:40:51.769Z,2.40
2022-12-04T18:43:19.440Z,2.40
2022-12-04T18:45:47.444Z,2.50
2022-12-04T18:48:16.166Z,2.50
2022-12-04T18:50:45.157Z,2.40
2022-12-04T18:53:12.794Z,2.40
2022-12-04T18:55:40.504Z,2.40
2022-12-04T18:58:08.176Z,2.30
2022-12-04T19:00:35.899Z,2.40
2022-12-04T19:03:04.548Z,2.40
2022-12-04T19:05:32.233Z,2.30
2022-12-04T19:08:01.587Z,2.30
2022-12-04T19:10:29.764Z,2.30
2022-12-04T19:12:57.459Z,2.40
2022-12-04T19:15:25.117Z,2.40
2022-12-04T19:17:52.755Z,2.40
2022-12-04T19:20:21.472Z,2.40
2022-12-04T19:22:49.134Z,2.30
2022-12-04T19:25:18.156Z,2.30
2022-12-04T19:27:46.088Z,2.40
2022-12-04T19:30:14.202Z,2.40
2022-12-04T19:32:41.908Z,2.40
2022-12-04T19:35:09.816Z,2.40
2022-12-04T19:37:41.730Z,2.40
2022-12-04T19:40:10.350Z,2.40
2022-12-04T19:42:39.320Z,2.50
2022-12-04T19:45:07.336Z,2.40
2022-12-04T19:47:34.970Z,2.40
2022-12-04T19:50:02.613Z,2.50
2022-12-04T19:52:30.256Z,2.50
2022-12-04T19:54:57.888Z,2.50
2022-12-04T19:57:25.553Z,2.50
2022-12-04T19:59:54.531Z,2.60
2022-12-04T20:02:22.246Z,2.60
2022-12-04T20:04:50.179Z,2.60
2022-12-04T20:07:17.846Z,2.50
2022-12-04T20:09:52.021Z,2.60
2022-12-04T20:12:20.197Z,2.60
2022-12-04T20:14:47.878Z,2.60
2022-12-04T20:17:16.895Z,2.60
2022-12-04T20:19:44.851Z,2.60
2022-12-04T20:22:12.503Z,2.50
2022-12-04T20:24:40.197Z,2.50
2022-12-04T20:27:07.880Z,2.50
2022-12-04T20:29:35.536Z,2.50
2022-12-04T20:32:03.199Z,2.40
2022-12-04T20:34:32.221Z,2.50
2022-12-04T20:36:59.941Z,2.50
2022-12-04T20:39:28.147Z,2.50
2022-12-04T20:41:55.787Z,2.50
2022-12-04T20:44:23.586Z,2.50
2022-12-04T20:46:51.371Z,2.50
2022-12-04T20:49:22.084Z,2.50
2022-12-04T20:51:52.050Z,2.50
2022-12-04T20:54:20.666Z,2.50
2022-12-04T20:56:49.044Z,2.50
2022-12-04T20:59:17.892Z,2.50
2022-12-04T21:01:45.673Z,2.60
2022-12-04T21:04:13.593Z,2.50
2022-12-04T21:06:41.664Z,2.50
2022-12-04T21:09:12.568Z,2.50
2022-12-04T21:11:42.093Z,2.50
2022-12-04T21:14:29.629Z,2.50
2022-12-04T21:16:57.458Z,2.50
2022-12-04T21:19:25.098Z,2.50
2022-12-04T21:21:52.944Z,2.40
2022-12-04T21:24:23.338Z,2.40
2022-12-04T21:26:51.001Z,2.40
2022-12-04T21:29:18.665Z,2.40
2022-12-04T21:31:46.420Z,2.50
2022-12-04T21:34:14.937Z,2.40
2022-12-04T21:36:42.710Z,2.40
2022-12-04T21:39:10.654Z,2.40
2022-12-04T21:41:57.194Z,2.40
2022-12-04T21:44:24.818Z,2.50
2022-12-04T21:46:52.618Z,2.40
2022-12-04T21:49:20.733Z,2.40
2022-12-04T21:51:57.660Z,2.50
2022-12-04T21:54:26.528Z,2.50
2022-12-04T21:56:55.813Z,2.50
2022-12-04T21:59:23.916Z,2.60
2022-12-04T22:01:51.796Z,2.50
2022-12-04T22:04:19.550Z,2.50
2022-12-04T22:06:47.250Z,2.40
2022-12-04T22:09:14.954Z,2.40
2022-12-04T22:11:42.930Z,2.40
2022-12-04T22:14:12.916Z,2.40
2022-12-04T22:16:42.897Z,2.40
2022-12-04T22:19:10.954Z,2.40
2022-12-04T22:21:38.765Z,2.40
2022-12-04T22:24:08.014Z,2.50
2022-12-04T22:26:35.789Z,2.50
2022-12-04T22:29:20.822Z,2.50
2022-12-04T22:31:52.956Z,2.50
2022-12-04T22:34:20.661Z,2.40
2022-12-04T22:36:49.846Z,2.40
2022-12-04T22:39:17.490Z,2.50
2022-12-04T22:41:45.188Z,2.50
2022-12-04T22:44:12.836Z,2.40
2022-12-04T22:46:40.591Z,2.40
2022-12-04T22:49:09.693Z,2.50
2022-12-04T22:51:37.399Z,2.40
2022-12-04T22:54:06.289Z,2.60
2022-12-04T22:56:33.945Z,2.60
2022-12-04T22:59:01.742Z,2.50
2022-12-04T23:01:30.583Z,2.50
2022-12-04T23:03:58.808Z,2.50
2022-12-04T23:06:28.419Z,2.50
2022-12-04T23:08:56.523Z,2.50
2022-12-04T23:11:24.947Z,2.50
2022-12-04T23:13:53.149Z,2.50
2022-12-04T23:16:21.606Z,2.50
2022-12-04T23:18:49.766Z,2.50
2022-12-04T23:21:18.042Z,2.50
2022-12-04T23:23:48.450Z,2.50
2022-12-04T23:26:16.550Z,2.50
2022-12-04T23:28:44.388Z,2.50
2022-12-04T23:31:12.465Z,2.60
2022-12-04T23:33:40.950Z,2.60
2022-12-04T23:36:09.400Z,2.50
2022-12-04T23:38:37.905Z,2.60
2022-12-04T23:41:08.056Z,2.60
2022-12-04T23:43:35.720Z,2.60
2022-12-04T23:46:08.911Z,2.60
2022-12-04T23:48:38.544Z,2.60
2022-12-04T23:51:06.459Z,2.60
2022-12-04T23:53:34.123Z,2.70
2022-12-04T23:56:03.782Z,2.60
2022-12-04T23:58:33.295Z,2.60
